Home   Weather   Spain   Albacete   Past weeks
Flag for Spain

Past Weather in Albacete, Albacete, Spain — Yesterday and Last 2 Weeks

Currently: 55 °F. Scattered clouds. (Weather station: Albacete / Los Llanos, Spain). See more current weather

Past Weather in Albacete — Graph

°F

Albacete Temperature Yesterday

Maximum temperature yesterday: 55 °F (at 3:00 pm)
Minimum temperature yesterday: 32 °F (at 4:00 am)
Average temperature yesterday: 42 °F

High & Low Weather Summary for the Past Weeks

 TemperatureHumidityPressure
High68 °F (Nov 17, 2:30 pm)100% (Nov 18, 12:00 am)30.45 "Hg (Nov 18, 12:00 am)
Low28 °F (Nov 27, 7:00 am)34% (Nov 27, 3:00 pm)29.86 "Hg (Nov 17, 3:00 pm)
Average49 °F75%30.11 "Hg
* Reported Nov 16 3:00 pm — Dec 1 3:00 pm, Albacete. Weather by CustomWeather, © 2022

Note: Actual official high and low records may vary slightly from our data, if they occured in-between our weather recording intervals... More about our weather records

Albacete Weather History for the Previous 24 Hours

Scroll right to see more
 ConditionsComfort  
Time TempWeatherWind HumidityBarometerVisibility
3:00 pm
Thu, Dec 1
55 °FScattered clouds.9 mph59%29.92 "HgN/A
2:30 pm54 °FPassing clouds.8 mph58%29.92 "HgN/A
2:00 pm54 °FScattered clouds.8 mph67%29.92 "HgN/A
1:30 pm54 °FScattered clouds.7 mph67%29.95 "HgN/A
1:00 pm52 °FPassing clouds.7 mph72%29.95 "HgN/A
12:30 pm50 °FPassing clouds.7 mph71%29.95 "HgN/A
12:00 pm46 °FSunny.5 mph82%29.98 "Hg10 mi
11:30 am46 °FSunny.3 mph82%29.98 "Hg10 mi
11:00 am46 °FSunny.2 mph82%29.98 "Hg10 mi
10:30 am46 °FPassing clouds.3 mph82%29.98 "HgN/A
10:00 am43 °FSunny.5 mph87%29.98 "Hg10 mi
9:30 am41 °FSunny.5 mph87%29.98 "Hg10 mi
9:00 am39 °FSunny.3 mph93%29.98 "Hg10 mi
8:30 am39 °FSunny.2 mph87%29.98 "Hg10 mi
8:00 am39 °FClear.No wind93%29.95 "Hg10 mi
7:00 am39 °FClear.No wind87%29.95 "Hg10 mi
6:30 am39 °FClear.2 mph87%29.95 "Hg10 mi
6:00 am39 °FPassing clouds.3 mph87%29.95 "HgN/A
5:30 am41 °FClear.2 mph81%29.95 "Hg10 mi
5:00 am41 °FClear.3 mph87%29.95 "Hg10 mi
4:30 am41 °FClear.2 mph87%29.95 "Hg10 mi
4:00 am41 °FClear.6 mph87%29.95 "Hg10 mi
3:30 am39 °FPassing clouds.3 mph87%29.95 "HgN/A
3:00 am39 °FClear.1 mph87%29.95 "Hg10 mi
2:30 am41 °FClear.6 mph81%29.98 "Hg10 mi
2:00 am41 °FPassing clouds.3 mph81%29.98 "HgN/A
12:30 am39 °FPassing clouds.3 mph81%29.98 "HgN/A
12:00 am39 °FClear.3 mph81%29.98 "Hg10 mi
11:30 pm
Wed, Nov 30
41 °FClear.5 mph81%29.98 "Hg10 mi
11:00 pm43 °FClear.6 mph71%29.98 "Hg10 mi
10:30 pm41 °FClear.5 mph76%29.98 "Hg10 mi
10:00 pm43 °FClear.6 mph71%29.98 "Hg10 mi
9:30 pm41 °FClear.3 mph76%29.98 "Hg10 mi
9:00 pm43 °FClear.6 mph76%29.98 "Hg10 mi
8:30 pm41 °FClear.5 mph81%29.98 "Hg10 mi
8:00 pm39 °FClear.3 mph81%29.98 "Hg10 mi
7:30 pm41 °FClear.2 mph76%29.98 "Hg10 mi
7:00 pm45 °FClear.3 mph71%29.98 "Hg10 mi
6:30 pm46 °FClear.2 mph62%29.98 "Hg10 mi
6:00 pm46 °FClear.1 mph62%29.98 "Hg10 mi
5:30 pm50 °FSunny.2 mph54%29.98 "Hg10 mi
5:00 pm54 °FSunny.2 mph51%29.98 "Hg10 mi
4:30 pm54 °FPassing clouds.3 mph47%29.98 "HgN/A
4:00 pm55 °FPassing clouds.3 mph44%29.98 "HgN/A
Weather by CustomWeather, © 2022

See weather overview